Time;durP1;ratioP1;P1;durP2;ratioP2;P2;SDS_P1;SDS_P2;PMS_P1;PMS_P2;Temp;Humidity;BMP_temperature;BMP_pressure;BME280_temperature;BME280_humidity;BME280_pressure;Samples;Min_cycle;Max_cycle;Signal;HPM_P1;HPM_P2
2022/07/18 00:00:15;;;;;;;1.90;0.80;;;;;;;29.06;38.01;99601.03;5101330;28;20043;-57
2022/07/18 00:02:41;;;;;;;1.35;0.90;;;;;;;29.05;38.03;99593.81;5098085;28;20036;-58
2022/07/18 00:05:07;;;;;;;1.20;0.80;;;;;;;29.06;37.88;99591.78;5099570;28;20403;-58
2022/07/18 00:07:32;;;;;;;1.02;0.80;;;;;;;29.02;38.06;99594.66;5103975;28;20043;-58
2022/07/18 00:09:58;;;;;;;1.23;0.90;;;;;;;29.04;38.20;99592.22;5100024;28;20055;-66
2022/07/18 00:12:24;;;;;;;1.50;1.00;;;;;;;29.04;38.06;99594.25;5098625;28;20044;-66
2022/07/18 00:14:49;;;;;;;0.93;0.82;;;;;;;29.01;38.06;99595.09;5105804;28;20104;-66
2022/07/18 00:17:14;;;;;;;1.75;0.75;;;;;;;28.99;38.14;99591.91;5104055;28;20047;-66
2022/07/18 00:19:40;;;;;;;1.02;0.75;;;;;;;29.02;38.17;99597.50;5098279;28;20054;-66
2022/07/18 00:22:07;;;;;;;1.13;0.77;;;;;;;29.01;38.36;99603.56;5101359;28;20778;-66
2022/07/18 00:24:32;;;;;;;1.27;0.80;;;;;;;29.05;38.26;99607.88;5104218;28;20036;-57
2022/07/18 00:26:59;;;;;;;2.55;0.90;;;;;;;29.02;38.21;99605.94;5097301;28;20043;-57
2022/07/18 00:29:25;;;;;;;1.77;0.95;;;;;;;29.00;38.41;99599.91;5099834;28;20086;-57
2022/07/18 00:31:51;;;;;;;1.13;0.80;;;;;;;29.02;38.22;99591.84;5105574;28;20140;-66
2022/07/18 00:34:18;;;;;;;1.48;0.75;;;;;;;29.02;38.28;99591.84;5083330;28;20520;-58
2022/07/18 00:36:43;;;;;;;1.52;0.75;;;;;;;29.00;38.24;99594.28;5099957;28;20078;-57
2022/07/18 00:39:09;;;;;;;0.75;0.60;;;;;;;29.00;38.23;99599.91;5101405;28;20075;-57
2022/07/18 00:41:34;;;;;;;1.30;0.90;;;;;;;28.99;38.45;99592.69;5102377;28;20082;-66
2022/07/18 00:43:59;;;;;;;2.63;1.10;;;;;;;29.01;38.23;99595.91;5101140;28;20084;-57
2022/07/18 00:46:27;;;;;;;1.83;0.90;;;;;;;28.98;38.39;99596.72;5103906;28;20114;-66
2022/07/18 00:48:53;;;;;;;1.20;0.80;;;;;;;28.97;38.30;99595.16;5099992;28;20049;-66
2022/07/18 00:51:20;;;;;;;0.90;0.70;;;;;;;28.97;38.12;99600.78;5093777;28;20032;-66
2022/07/18 00:53:47;;;;;;;1.27;0.93;;;;;;;28.95;38.47;99597.59;5098464;28;20044;-66
2022/07/18 00:56:16;;;;;;;1.27;0.88;;;;;;;28.97;38.26;99599.97;5098651;28;20074;-57
2022/07/18 00:58:43;;;;;;;2.67;1.10;;;;;;;28.94;38.33;99592.41;5101708;28;20558;-58
2022/07/18 01:03:52;;;;;;;1.40;0.85;;;;;;;28.96;38.14;99598.41;5102369;28;20550;-57
2022/07/18 01:06:18;;;;;;;2.08;0.80;;;;;;;28.96;38.32;99604.03;5102195;28;20044;-66
2022/07/18 01:08:43;;;;;;;1.30;1.00;;;;;;;28.93;38.19;99596.41;5091399;28;20058;-67
2022/07/18 01:11:10;;;;;;;2.65;0.70;;;;;;;28.92;38.30;99598.44;5096398;28;20131;-67
2022/07/18 01:13:37;;;;;;;1.02;0.80;;;;;;;28.93;38.23;99597.22;5102184;28;20063;-57
2022/07/18 01:16:03;;;;;;;0.90;0.77;;;;;;;28.94;38.16;99595.22;5101678;28;20135;-58
2022/07/18 01:18:28;;;;;;;1.25;0.90;;;;;;;28.91;38.36;99596.84;5097354;28;20123;-67
2022/07/18 01:20:54;;;;;;;1.23;0.82;;;;;;;28.93;38.09;99600.03;5099897;28;20043;-66
2022/07/18 01:23:19;;;;;;;1.20;0.80;;;;;;;28.94;37.99;99601.66;5098194;28;20035;-58
2022/07/18 01:25:47;;;;;;;1.15;0.75;;;;;;;28.93;38.26;99605.66;5100170;28;20483;-58
2022/07/18 01:28:13;;;;;;;1.10;0.88;;;;;;;28.91;38.10;99607.31;5098853;28;20415;-58
2022/07/18 01:30:39;;;;;;;1.50;1.00;;;;;;;28.89;38.20;99610.53;5096742;28;20499;-58
2022/07/18 01:33:05;;;;;;;0.98;0.70;;;;;;;28.91;38.29;99613.75;5100733;28;20403;-58
2022/07/18 01:35:32;;;;;;;0.93;0.73;;;;;;;28.91;38.05;99612.94;5094092;28;20035;-67
2022/07/18 01:37:59;;;;;;;1.50;0.90;;;;;;;28.91;37.88;99615.75;5098638;28;20400;-58
2022/07/18 01:40:26;;;;;;;1.00;0.80;;;;;;;28.92;38.24;99617.34;5096254;28;20389;-58
2022/07/18 01:42:52;;;;;;;0.80;0.70;;;;;;;28.91;38.10;99624.22;5097063;28;20511;-58
2022/07/18 01:45:18;;;;;;;1.20;0.90;;;;;;;28.90;37.92;99617.75;5105116;28;20092;-67
2022/07/18 01:47:44;;;;;;;1.33;0.90;;;;;;;28.92;38.16;99612.53;5100641;28;20047;-67
2022/07/18 01:50:11;;;;;;;0.85;0.60;;;;;;;28.91;38.05;99627.81;5100918;28;20047;-58
2022/07/18 01:52:37;;;;;;;1.33;0.80;;;;;;;28.90;38.33;99622.59;5093840;28;20052;-67
2022/07/18 01:55:04;;;;;;;2.72;0.90;;;;;;;28.91;38.09;99625.00;5097869;28;20426;-58
2022/07/18 01:57:30;;;;;;;1.13;0.77;;;;;;;28.92;38.05;99625.81;5094327;28;20051;-58
2022/07/18 01:59:55;;;;;;;1.00;0.80;;;;;;;28.92;38.01;99620.97;5100008;28;20047;-67
2022/07/18 02:02:21;;;;;;;1.15;0.80;;;;;;;28.90;37.97;99629.03;5101561;28;20055;-66
2022/07/18 02:05:02;;;;;;;0.93;0.70;;;;;;;28.89;38.02;99623.81;5097358;28;20036;-67
2022/07/18 02:07:30;;;;;;;1.60;0.88;;;;;;;28.87;38.05;99626.28;5093847;28;20047;-67
2022/07/18 02:09:56;;;;;;;1.52;0.90;;;;;;;28.84;38.15;99627.09;5099881;28;20588;-58
2022/07/18 02:12:22;;;;;;;1.10;0.80;;;;;;;28.85;38.01;99625.88;5087724;28;20084;-67
2022/07/18 02:14:48;;;;;;;1.15;0.90;;;;;;;28.87;38.01;99632.69;5079444;28;20044;-67
2022/07/18 02:17:13;;;;;;;1.10;0.88;;;;;;;28.80;38.03;99630.00;5073478;28;20040;-59
2022/07/18 02:19:39;;;;;;;3.20;0.93;;;;;;;28.85;38.00;99637.16;5075364;28;20056;-67
2022/07/18 02:22:05;;;;;;;1.17;0.88;;;;;;;28.84;37.84;99639.16;5071236;28;20115;-67
2022/07/18 02:24:31;;;;;;;0.95;0.80;;;;;;;28.83;37.80;99640.38;5084302;28;20619;-67
2022/07/18 02:26:56;;;;;;;1.50;0.90;;;;;;;28.88;37.86;99642.72;5074789;28;20056;-67
2022/07/18 02:29:22;;;;;;;1.10;0.90;;;;;;;28.85;37.79;99642.78;5076899;28;20149;-67
2022/07/18 02:31:47;;;;;;;1.13;0.80;;;;;;;28.86;37.84;99641.53;5075556;28;20908;-67
2022/07/18 02:34:14;;;;;;;1.00;0.80;;;;;;;28.86;37.51;99644.38;5079993;28;20044;-67
2022/07/18 02:36:40;;;;;;;1.17;0.82;;;;;;;28.86;37.68;99639.53;5083557;28;20569;-58
2022/07/18 02:39:07;;;;;;;0.90;0.80;;;;;;;28.86;37.54;99644.38;5080270;28;20037;-59
2022/07/18 02:41:32;;;;;;;1.38;0.90;;;;;;;28.82;37.88;99638.00;5078894;28;20056;-67
2022/07/18 02:43:58;;;;;;;1.40;0.90;;;;;;;28.85;37.81;99637.16;5071732;28;20047;-58
2022/07/18 02:46:24;;;;;;;1.02;0.77;;;;;;;28.81;37.73;99634.41;5078290;28;20115;-67
2022/07/18 02:48:49;;;;;;;1.17;0.75;;;;;;;28.80;37.71;99638.44;5074345;28;20040;-67
2022/07/18 02:51:15;;;;;;;1.15;0.90;;;;;;;28.79;37.79;99636.81;5079151;28;20082;-58
2022/07/18 02:53:40;;;;;;;1.50;0.90;;;;;;;28.81;37.69;99636.41;5073374;28;20048;-58
2022/07/18 02:56:06;;;;;;;1.00;0.77;;;;;;;28.81;37.68;99637.22;5079416;28;20127;-58
2022/07/18 02:58:32;;;;;;;1.40;1.00;;;;;;;28.74;37.71;99629.66;5070197;28;20044;-66
2022/07/18 03:00:57;;;;;;;1.30;0.90;;;;;;;28.80;37.64;99635.63;5079780;28;20424;-67
2022/07/18 03:03:23;;;;;;;1.58;1.10;;;;;;;28.79;37.41;99632.00;5079877;28;20110;-58
2022/07/18 03:05:49;;;;;;;1.10;0.80;;;;;;;28.80;37.19;99641.25;5082230;28;20415;-56
2022/07/18 03:08:14;;;;;;;1.30;0.90;;;;;;;28.80;37.29;99630.00;5076922;28;20530;-66
2022/07/18 03:10:39;;;;;;;1.48;1.00;;;;;;;28.78;37.46;99638.03;5074899;28;20051;-65
2022/07/18 03:13:05;;;;;;;1.00;0.80;;;;;;;28.81;37.43;99636.41;5083418;28;20555;-57
2022/07/18 03:15:31;;;;;;;1.23;0.85;;;;;;;28.80;37.32;99641.25;5082549;28;20040;-66
2022/07/18 03:17:57;;;;;;;1.45;1.00;;;;;;;28.79;37.33;99642.44;5077035;28;20048;-65
2022/07/18 03:20:22;;;;;;;1.30;0.90;;;;;;;28.77;37.32;99637.25;5080435;28;20052;-66
2022/07/18 03:22:48;;;;;;;1.05;0.80;;;;;;;28.77;37.09;99642.88;5082051;28;20040;-57
2022/07/18 03:25:13;;;;;;;1.25;0.90;;;;;;;28.78;37.26;99643.66;5079498;28;20123;-65
2022/07/18 03:27:38;;;;;;;1.23;0.85;;;;;;;28.73;37.26;99635.72;5079411;28;20040;-65
2022/07/18 03:30:04;;;;;;;1.08;0.85;;;;;;;28.77;37.18;99647.72;5072289;28;20071;-56
2022/07/18 03:32:30;;;;;;;1.17;0.90;;;;;;;28.76;37.21;99637.69;5060582;28;20411;-57
2022/07/18 03:34:55;;;;;;;1.85;1.10;;;;;;;28.73;37.27;99636.53;5068440;28;20504;-57
2022/07/18 03:37:20;;;;;;;1.63;0.90;;;;;;;28.74;37.22;99631.69;5071371;28;20040;-57
2022/07/18 03:39:46;;;;;;;1.30;0.90;;;;;;;28.73;37.20;99641.34;5071675;28;20051;-57
2022/07/18 03:42:11;;;;;;;1.40;0.90;;;;;;;28.69;37.21;99635.75;5075089;28;20053;-57
2022/07/18 03:44:37;;;;;;;1.30;0.90;;;;;;;28.73;37.15;99638.53;5082134;28;20051;-56
2022/07/18 03:47:02;;;;;;;1.30;0.88;;;;;;;28.75;37.09;99641.72;5062275;28;20500;-65
2022/07/18 03:49:27;;;;;;;1.20;0.90;;;;;;;28.73;36.94;99636.53;5080913;28;20567;-57
2022/07/18 03:51:55;;;;;;;1.42;1.00;;;;;;;28.75;37.14;99642.50;5081097;28;20048;-65
2022/07/18 03:54:21;;;;;;;1.23;0.98;;;;;;;28.74;36.83;99637.31;5078819;28;20043;-65
2022/07/18 03:56:47;;;;;;;1.38;1.00;;;;;;;28.70;36.98;99637.34;5078713;28;20048;-57
2022/07/18 03:59:12;;;;;;;1.23;0.93;;;;;;;28.70;36.76;99633.75;5074055;28;20109;-65
2022/07/18 04:01:38;;;;;;;1.27;0.98;;;;;;;28.71;36.89;99636.13;5074552;28;20081;-65
2022/07/18 04:04:03;;;;;;;1.15;0.80;;;;;;;28.71;36.85;99643.78;5052514;28;20479;-66
2022/07/18 04:06:29;;;;;;;1.45;0.90;;;;;;;28.69;36.86;99637.78;5085153;28;20586;-57
2022/07/18 04:08:54;;;;;;;1.40;1.00;;;;;;;28.71;36.91;99636.13;5079158;28;20035;-56
2022/07/18 04:11:23;;;;;;;1.55;0.90;;;;;;;28.72;36.54;99640.56;5075914;28;20082;-57
2022/07/18 04:13:52;;;;;;;1.52;1.00;;;;;;;28.73;36.59;99650.59;5068142;28;20576;-57
2022/07/18 04:16:17;;;;;;;1.48;0.90;;;;;;;28.71;36.74;99647.38;5078364;28;20049;-66
2022/07/18 04:18:42;;;;;;;1.30;0.90;;;;;;;28.69;36.78;99646.22;5080138;28;20411;-66
2022/07/18 04:21:08;;;;;;;1.50;1.00;;;;;;;28.67;36.69;99643.03;5076078;28;20074;-65
2022/07/18 04:23:34;;;;;;;1.50;0.80;;;;;;;28.68;36.72;99655.88;5075490;28;20140;-65
2022/07/18 04:25:59;;;;;;;1.13;0.82;;;;;;;28.67;36.56;99652.28;5080749;28;20044;-65
2022/07/18 04:28:25;;;;;;;1.30;0.90;;;;;;;28.69;36.56;99651.84;5086766;28;20127;-57
2022/07/18 04:30:50;;;;;;;1.20;0.93;;;;;;;28.68;36.59;99650.25;5086387;28;20032;-65
2022/07/18 04:33:16;;;;;;;1.17;0.90;;;;;;;28.66;36.75;99659.13;5082055;28;20403;-65
2022/07/18 04:35:41;;;;;;;1.13;0.90;;;;;;;28.64;36.58;99657.94;5082105;28;20044;-65
2022/07/18 04:38:09;;;;;;;1.42;1.00;;;;;;;28.68;36.57;99650.25;5080208;28;20036;-65
2022/07/18 04:40:35;;;;;;;1.40;0.90;;;;;;;28.69;36.55;99657.47;5078403;28;20481;-65
2022/07/18 04:43:00;;;;;;;1.30;0.98;;;;;;;28.68;36.20;99653.06;5080576;28;20056;-57
2022/07/18 04:45:26;;;;;;;1.20;0.82;;;;;;;28.68;36.45;99653.06;5075158;28;20147;-56
2022/07/18 04:47:53;;;;;;;1.50;1.10;;;;;;;28.69;36.50;99651.84;5084186;28;20093;-65
2022/07/18 04:50:19;;;;;;;1.50;1.05;;;;;;;28.70;36.23;99653.44;5079240;28;20155;-56
2022/07/18 04:52:46;;;;;;;1.30;0.88;;;;;;;28.68;36.39;99659.50;5088662;28;20040;-57
2022/07/18 04:55:13;;;;;;;1.35;0.90;;;;;;;28.70;36.39;99656.25;5084466;28;20040;-56
2022/07/18 04:57:39;;;;;;;1.40;1.00;;;;;;;28.74;36.32;99660.63;5079140;28;20040;-57
2022/07/18 05:00:07;;;;;;;1.20;0.80;;;;;;;28.71;36.12;99655.03;5075199;28;20094;-65
2022/07/18 05:02:33;;;;;;;1.58;1.00;;;;;;;28.75;36.06;99652.97;5086399;28;20528;-65
2022/07/18 05:04:58;;;;;;;1.27;0.80;;;;;;;28.75;36.02;99656.59;5077647;28;20040;-65
2022/07/18 05:07:24;;;;;;;1.40;0.88;;;;;;;28.76;36.20;99657.38;5081180;28;20055;-57
2022/07/18 05:09:49;;;;;;;1.30;0.90;;;;;;;28.78;36.31;99657.75;5080460;28;20586;-57
2022/07/18 05:12:15;;;;;;;1.35;1.00;;;;;;;28.80;36.44;99663.78;5081365;28;20040;-57
2022/07/18 05:14:40;;;;;;;1.25;0.80;;;;;;;28.83;36.31;99654.47;5084296;28;20121;-56
2022/07/18 05:17:06;;;;;;;1.40;0.93;;;;;;;28.81;36.41;99659.72;5087673;28;20090;-65
2022/07/18 05:19:31;;;;;;;4.88;0.90;;;;;;;28.88;36.48;99659.63;5082393;28;20408;-57
2022/07/18 05:21:56;;;;;;;1.60;0.93;;;;;;;28.91;36.49;99653.16;5076968;28;20048;-65
2022/07/18 05:24:22;;;;;;;1.70;1.10;;;;;;;28.94;36.20;99657.16;5081672;28;20576;-65
2022/07/18 05:26:47;;;;;;;1.40;1.10;;;;;;;28.97;36.56;99650.69;5078993;28;20123;-66
2022/07/18 05:29:13;;;;;;;1.40;0.98;;;;;;;28.97;36.49;99659.13;5072675;28;20044;-57
2022/07/18 05:31:42;;;;;;;1.70;1.02;;;;;;;28.95;36.96;99655.94;5074344;28;20044;-67
2022/07/18 05:34:08;;;;;;;2.15;1.00;;;;;;;28.94;36.88;99660.00;5078962;28;20051;-56
2022/07/18 05:36:33;;;;;;;2.53;1.10;;;;;;;29.01;36.74;99657.06;5070543;28;20053;-57
2022/07/18 05:39:00;;;;;;;1.50;0.90;;;;;;;29.04;36.64;99662.63;5077067;28;20446;-57
2022/07/18 05:41:27;;;;;;;1.50;1.00;;;;;;;29.08;36.65;99664.59;5075302;28;20380;-57
2022/07/18 05:43:52;;;;;;;1.35;0.98;;;;;;;29.09;36.70;99664.19;5083332;28;20051;-56
2022/07/18 05:46:17;;;;;;;1.40;1.00;;;;;;;29.13;36.32;99664.91;5080379;28;20036;-56
2022/07/18 05:48:43;;;;;;;3.25;1.00;;;;;;;29.15;36.58;99672.91;5083000;28;20117;-56
2022/07/18 05:51:10;;;;;;;1.58;1.00;;;;;;;29.15;36.20;99673.75;5078391;28;20513;-65
2022/07/18 05:53:35;;;;;;;2.40;1.00;;;;;;;29.17;36.27;99670.50;5077111;28;20052;-56
2022/07/18 05:56:00;;;;;;;1.17;0.90;;;;;;;29.19;35.94;99680.09;5079285;28;20416;-66
2022/07/18 05:58:26;;;;;;;1.80;1.08;;;;;;;29.20;36.05;99678.09;5085858;28;20507;-66
2022/07/18 06:00:51;;;;;;;1.20;1.00;;;;;;;29.19;36.05;99685.75;5075252;28;20075;-65
2022/07/18 06:03:17;;;;;;;1.45;0.98;;;;;;;29.21;35.81;99676.84;5081597;28;20416;-57
2022/07/18 06:05:42;;;;;;;1.90;1.10;;;;;;;28.96;36.22;99680.06;5072978;28;20048;-57
2022/07/18 06:08:08;;;;;;;1.67;0.90;;;;;;;28.86;36.88;99680.97;5075560;28;20040;-66
2022/07/18 06:10:33;;;;;;;1.70;1.02;;;;;;;28.77;36.64;99690.75;5085031;28;20043;-57
2022/07/18 06:12:58;;;;;;;1.45;0.90;;;;;;;28.71;36.73;99681.16;5088178;28;20044;-65
2022/07/18 06:15:24;;;;;;;1.90;1.17;;;;;;;28.66;36.84;99673.22;5088373;28;20086;-65
2022/07/18 06:17:50;;;;;;;1.73;1.20;;;;;;;28.77;36.63;99675.88;5089820;28;20036;-56
2022/07/18 06:20:16;;;;;;;1.77;1.10;;;;;;;28.81;36.62;99678.66;5089061;28;20051;-65
2022/07/18 06:22:42;;;;;;;1.92;1.02;;;;;;;28.83;36.56;99679.81;5084261;28;20114;-65
2022/07/18 06:25:09;;;;;;;1.70;0.93;;;;;;;28.82;36.67;99674.59;5072064;28;20045;-57
2022/07/18 06:27:35;;;;;;;1.60;0.90;;;;;;;28.79;36.43;99667.78;5089068;28;20050;-56
2022/07/18 06:30:04;;;;;;;2.13;1.00;;;;;;;28.85;36.58;99674.53;5087963;28;20052;-65
2022/07/18 06:32:29;;;;;;;1.20;0.90;;;;;;;28.81;36.65;99673.81;5085178;28;20052;-57
2022/07/18 06:34:55;;;;;;;1.45;0.88;;;;;;;28.78;36.81;99672.63;5075478;28;20762;-56
2022/07/18 06:37:20;;;;;;;1.35;1.00;;;;;;;28.79;36.54;99676.22;5085744;28;20403;-56
2022/07/18 06:39:46;;;;;;;1.30;0.90;;;;;;;28.76;36.70;99674.28;5085420;28;20055;-57
2022/07/18 06:42:11;;;;;;;1.50;1.00;;;;;;;28.66;36.62;99664.75;5085337;28;20032;-56
2022/07/18 06:44:37;;;;;;;1.30;0.90;;;;;;;28.71;36.71;99669.09;5082804;28;20482;-65
2022/07/18 06:47:02;;;;;;;1.95;1.00;;;;;;;28.70;36.62;99673.16;5078356;28;20286;-57
2022/07/18 06:49:27;;;;;;;2.00;1.10;;;;;;;28.71;36.46;99663.47;5075392;28;20051;-68
2022/07/18 06:51:53;;;;;;;1.50;0.98;;;;;;;28.69;36.46;99660.28;5051088;28;20467;-70
2022/07/18 06:54:20;;;;;;;2.63;1.25;;;;;;;28.73;35.99;99661.06;5076419;28;20093;-65
2022/07/18 06:56:45;;;;;;;3.85;1.70;;;;;;;28.67;35.80;99665.56;5077636;28;20078;-64
2022/07/18 06:59:11;;;;;;;5.90;1.63;;;;;;;28.57;35.96;99661.66;5073829;28;20063;-63
2022/07/18 07:01:36;;;;;;;3.90;1.67;;;;;;;28.46;36.28;99659.00;5073003;28;20142;-63
2022/07/18 07:04:02;;;;;;;5.07;1.70;;;;;;;28.43;36.24;99653.41;5077344;28;21348;-58
2022/07/18 07:06:28;;;;;;;4.65;1.80;;;;;;;28.45;36.25;99660.22;5074996;28;20443;-58
2022/07/18 07:08:53;;;;;;;5.30;2.10;;;;;;;28.44;35.99;99650.19;5074247;28;20044;-65
2022/07/18 07:11:21;;;;;;;4.47;2.10;;;;;;;28.46;35.75;99659.00;5072610;28;20045;-59
2022/07/18 07:13:47;;;;;;;3.80;1.90;;;;;;;28.41;35.54;99659.44;5072446;28;20047;-63
2022/07/18 07:16:12;;;;;;;6.28;2.20;;;;;;;28.46;35.30;99661.81;5075997;28;20044;-64
2022/07/18 07:18:38;;;;;;;5.95;2.20;;;;;;;28.45;35.59;99662.22;5074217;28;20056;-64
2022/07/18 07:21:05;;;;;;;10.20;2.20;;;;;;;28.45;35.45;99657.41;5065867;28;20081;-63
2022/07/18 07:23:30;;;;;;;6.97;2.10;;;;;;;28.41;35.75;99656.63;5073539;28;20094;-64
2022/07/18 07:25:56;;;;;;;5.38;2.10;;;;;;;28.43;35.92;99659.84;5067101;28;20036;-57
2022/07/18 07:28:21;;;;;;;4.47;2.13;;;;;;;28.47;36.01;99656.97;5074797;28;20392;-63
2022/07/18 07:30:47;;;;;;;5.72;2.28;;;;;;;28.56;35.86;99664.88;5075939;28;20059;-63
2022/07/18 07:33:12;;;;;;;6.25;2.03;;;;;;;28.58;35.62;99659.66;5083296;28;20044;-58
2022/07/18 07:35:38;;;;;;;5.30;2.05;;;;;;;28.62;35.80;99652.75;5072985;28;20457;-58
2022/07/18 07:38:03;;;;;;;4.05;1.95;;;;;;;28.66;35.38;99653.50;5075350;28;20036;-58
2022/07/18 07:40:30;;;;;;;7.28;2.00;;;;;;;28.67;35.22;99652.28;5064837;28;20047;-57
2022/07/18 07:43:11;;;;;;;3.22;1.90;;;;;;;28.73;35.38;99646.97;5070632;28;20450;-57
2022/07/18 07:45:37;;;;;;;4.05;1.90;;;;;;;28.62;34.75;99649.13;5070980;28;20405;-58
2022/07/18 07:48:04;;;;;;;5.50;1.83;;;;;;;28.52;35.46;99646.06;5063034;28;20059;-58
2022/07/18 07:50:30;;;;;;;4.80;2.47;;;;;;;28.39;35.69;99649.84;5066198;28;20140;-58
2022/07/18 07:52:57;;;;;;;5.40;2.08;;;;;;;28.46;35.37;99650.53;5067440;28;20036;-57
2022/07/18 07:55:24;;;;;;;5.38;2.20;;;;;;;28.52;35.50;99643.22;5079463;28;20433;-59
2022/07/18 07:57:49;;;;;;;5.68;2.33;;;;;;;28.55;35.58;99643.59;5078275;28;20076;-58
2022/07/18 08:00:15;;;;;;;4.32;2.30;;;;;;;28.58;35.08;99645.59;5075452;28;20053;-58
2022/07/18 08:03:02;;;;;;;5.38;2.40;;;;;;;28.59;35.43;99638.72;5072828;28;20040;-58
2022/07/18 08:05:30;;;;;;;5.43;2.17;;;;;;;28.63;35.09;99631.81;5074367;28;20101;-58
2022/07/18 08:07:59;;;;;;;5.93;2.30;;;;;;;28.65;34.95;99634.22;5070357;28;20708;-58
2022/07/18 08:10:25;;;;;;;4.97;2.28;;;;;;;28.67;34.69;99635.41;5064607;28;20419;-64
2022/07/18 08:12:52;;;;;;;4.40;2.30;;;;;;;28.59;34.53;99627.47;5072716;28;20060;-64
2022/07/18 08:15:18;;;;;;;8.48;2.25;;;;;;;28.36;34.52;99628.16;5073563;28;20062;-63
2022/07/18 08:17:43;;;;;;;10.82;2.20;;;;;;;28.19;34.54;99627.16;5078816;28;20418;-63
2022/07/18 08:20:11;;;;;;;10.57;2.25;;;;;;;27.96;36.84;99622.19;5073269;28;20048;-63
2022/07/18 08:22:50;;;;;;;7.90;2.30;;;;;;;27.95;35.58;99621.41;5083707;28;20044;-63
2022/07/18 08:25:17;;;;;;;7.78;2.58;;;;;;;27.88;34.92;99617.88;5073277;28;20048;-58
2022/07/18 08:27:44;;;;;;;11.30;2.67;;;;;;;27.77;36.99;99620.78;5068633;28;20468;-61
2022/07/18 08:30:09;;;;;;;7.43;2.20;;;;;;;27.70;35.67;99606.81;5068886;28;20044;-64
2022/07/18 08:32:35;;;;;;;6.53;2.22;;;;;;;27.64;35.63;99608.44;5074010;28;20036;-62
2022/07/18 08:35:01;;;;;;;7.18;2.30;;;;;;;27.68;37.14;99614.88;5057393;28;20068;-63
2022/07/18 08:37:27;;;;;;;4.93;2.40;;;;;;;27.69;36.55;99610.84;5064752;28;20052;-58
2022/07/18 08:39:52;;;;;;;5.72;2.38;;;;;;;27.56;36.50;99598.50;5071537;28;20072;-58
2022/07/18 08:42:23;;;;;;;5.97;2.30;;;;;;;27.47;36.38;99601.00;5084493;28;20467;-63
2022/07/18 08:44:49;;;;;;;10.13;2.60;;;;;;;27.32;36.77;99595.50;5078371;28;20067;-63
2022/07/18 08:47:17;;;;;;;6.50;2.22;;;;;;;27.36;38.48;99595.47;5072452;28;20131;-59
2022/07/18 08:49:43;;;;;;;5.68;2.67;;;;;;;27.41;37.22;99592.22;5075995;28;20052;-58
2022/07/18 08:52:09;;;;;;;5.78;2.50;;;;;;;27.36;36.93;99592.66;5079122;28;20126;-62
2022/07/18 08:54:36;;;;;;;7.95;2.67;;;;;;;27.24;36.50;99585.56;5052867;28;20055;-63
2022/07/18 08:57:01;;;;;;;4.80;2.58;;;;;;;27.28;38.40;99586.31;5077820;28;20048;-63
2022/07/18 08:59:27;;;;;;;7.45;2.45;;;;;;;27.39;37.11;99580.59;5072533;28;20775;-63
2022/07/18 09:01:52;;;;;;;6.35;2.47;;;;;;;27.31;36.50;99576.28;5080589;28;20398;-59
2022/07/18 09:04:40;;;;;;;9.80;3.00;;;;;;;27.32;38.35;99577.88;5073613;28;20051;-63
2022/07/18 09:07:08;;;;;;;7.72;2.40;;;;;;;27.40;36.78;99573.78;5070255;28;20048;-64
2022/07/18 09:09:37;;;;;;;5.57;2.60;;;;;;;27.40;36.36;99579.38;5063443;28;20060;-63
2022/07/18 09:12:04;;;;;;;8.52;3.08;;;;;;;27.29;36.20;99570.25;5075492;28;20037;-65
2022/07/18 09:14:36;;;;;;;6.55;2.45;;;;;;;27.21;35.88;99575.13;5065974;28;20047;-57
2022/07/18 09:17:32;;;;;;;15.15;2.88;;;;;;;27.22;37.43;99570.31;5063501;28;20048;-58
2022/07/18 09:20:05;;;;;;;8.13;2.50;;;;;;;27.36;37.03;99575.81;5056272;28;20056;-59
2022/07/18 09:22:35;;;;;;;9.15;3.10;;;;;;;27.32;36.49;99572.25;5055696;28;20136;-58
2022/07/18 09:25:08;;;;;;;6.93;2.30;;;;;;;27.27;36.21;99573.47;5072119;28;20520;-58
2022/07/18 09:27:42;;;;;;;6.50;2.80;;;;;;;27.21;35.76;99563.13;5072200;28;20048;-62
2022/07/18 09:30:43;;;;;;;8.93;2.90;;;;;;;27.24;36.03;99565.91;5071714;28;20044;-62
2022/07/18 09:33:10;;;;;;;5.15;2.47;;;;;;;27.24;35.64;99563.09;5024779;28;20123;-58
2022/07/18 09:35:47;;;;;;;4.60;2.92;;;;;;;27.24;35.52;99559.50;5074465;28;20114;-59
2022/07/18 09:38:18;;;;;;;7.70;2.60;;;;;;;27.20;36.08;99553.88;5069934;28;20055;-59
2022/07/18 09:40:45;;;;;;;3.83;2.53;;;;;;;27.27;35.74;99551.00;5057602;28;20063;-59
2022/07/18 09:43:14;;;;;;;5.93;2.70;;;;;;;27.28;35.66;99554.63;5077801;28;20613;-58
2022/07/18 09:45:41;;;;;;;7.68;2.53;;;;;;;27.27;35.46;99544.59;5075518;28;20054;-58
2022/07/18 09:48:14;;;;;;;8.20;2.75;;;;;;;27.23;35.57;99538.25;5048477;28;20045;-58
2022/07/18 09:50:55;;;;;;;4.05;2.25;;;;;;;27.25;35.61;99533.78;5070075;28;20056;-59
2022/07/18 09:53:27;;;;;;;6.97;2.35;;;;;;;27.33;36.04;99538.13;5064201;28;20086;-58
2022/07/18 09:55:55;;;;;;;8.55;2.60;;;;;;;27.34;35.50;99525.66;5057620;28;20844;-62
2022/07/18 09:58:29;;;;;;;7.70;2.70;;;;;;;27.46;35.50;99527.16;5076012;28;20584;-59
2022/07/18 10:00:56;;;;;;;6.68;2.80;;;;;;;27.52;35.11;99519.06;5084260;28;20052;-58
2022/07/18 10:03:23;;;;;;;6.47;2.70;;;;;;;27.51;35.08;99520.28;5072795;28;20035;-63
2022/07/18 10:05:51;;;;;;;6.75;2.63;;;;;;;27.55;35.29;99523.84;5070041;28;20677;-63
2022/07/18 10:08:19;;;;;;;4.95;2.90;;;;;;;27.56;35.25;99515.00;5071817;28;20041;-63
2022/07/18 10:10:47;;;;;;;7.78;2.70;;;;;;;27.53;34.72;99515.84;5073569;28;20051;-57
2022/07/18 10:13:13;;;;;;;7.68;2.88;;;;;;;27.53;34.88;99513.03;5096875;28;20128;-63
2022/07/18 10:15:41;;;;;;;4.72;2.63;;;;;;;27.51;34.67;99509.84;5090116;28;20039;-63
2022/07/18 10:18:09;;;;;;;7.32;3.40;;;;;;;27.50;34.79;99502.63;5095266;28;21668;-58
2022/07/18 10:20:41;;;;;;;4.70;2.63;;;;;;;27.51;34.79;99495.00;5091074;28;20071;-63
2022/07/18 10:23:16;;;;;;;8.63;2.90;;;;;;;27.56;34.84;99491.72;5086179;28;20044;-64
2022/07/18 10:25:41;;;;;;;6.85;2.70;;;;;;;27.59;34.37;99488.09;5098028;28;20055;-58
2022/07/18 10:28:10;;;;;;;7.15;2.80;;;;;;;27.62;35.01;99479.59;5090041;28;20044;-58
2022/07/18 10:30:44;;;;;;;8.05;3.25;;;;;;;27.65;35.08;99480.78;5099928;28;20040;-58
2022/07/18 10:33:37;;;;;;;5.25;2.90;;;;;;;27.69;34.88;99484.38;5091358;28;20123;-63
2022/07/18 10:36:08;;;;;;;6.47;3.10;;;;;;;27.75;34.46;99473.47;5073997;28;20485;-58
2022/07/18 10:38:35;;;;;;;6.25;2.65;;;;;;;27.78;34.60;99469.78;5092280;28;20054;-63
2022/07/18 10:41:07;;;;;;;6.63;2.78;;;;;;;27.74;34.16;99466.25;5102206;28;20139;-58
2022/07/18 10:43:36;;;;;;;6.47;3.13;;;;;;;27.74;34.00;99466.25;5095696;28;20111;-58
2022/07/18 10:46:04;;;;;;;7.60;3.05;;;;;;;27.69;34.09;99457.06;5099676;28;21150;-63
2022/07/18 10:48:32;;;;;;;6.45;2.80;;;;;;;27.70;34.07;99463.47;5086732;28;20038;-59
2022/07/18 10:51:00;;;;;;;9.38;3.22;;;;;;;27.57;34.07;99453.97;5089963;28;20052;-56
2022/07/18 10:53:54;;;;;;;9.43;2.88;;;;;;;27.34;38.31;99451.84;5089463;28;20044;-58
2022/07/18 10:56:28;;;;;;;5.03;2.60;;;;;;;27.31;39.49;99444.25;5097646;28;20124;-70
2022/07/18 10:59:24;;;;;;;3.80;2.22;;;;;;;27.28;38.99;99443.06;5095053;28;20146;-55
2022/07/18 11:01:56;;;;;;;6.65;2.20;;;;;;;27.17;39.23;99445.22;5092756;28;20047;-56
2022/07/18 11:04:32;;;;;;;4.00;2.10;;;;;;;27.13;40.44;99433.22;5088263;28;20178;-68
2022/07/18 11:07:15;;;;;;;5.18;2.35;;;;;;;27.15;39.35;99428.78;5088484;28;20039;-67
2022/07/18 11:09:50;;;;;;;5.50;1.85;;;;;;;27.01;39.58;99433.72;5087758;28;20040;-69
2022/07/18 11:12:28;;;;;;;3.15;2.10;;;;;;;26.98;40.74;99434.56;5099707;28;20123;-57
2022/07/18 11:15:11;;;;;;;3.67;2.00;;;;;;;27.10;39.73;99432.06;5098219;28;20117;-69
2022/07/18 11:17:52;;;;;;;3.33;1.75;;;;;;;26.95;40.26;99418.56;5092571;28;20048;-68
2022/07/18 11:20:41;;;;;;;3.63;1.95;;;;;;;27.05;39.91;99412.84;5096792;28;20047;-62
2022/07/18 11:23:15;;;;;;;13.30;8.77;;;;;;;27.03;38.98;99417.25;5110635;28;20558;-62
2022/07/18 11:25:41;;;;;;;12.45;7.50;;;;;;;26.95;37.66;99410.13;5096952;28;20048;-61
2022/07/18 11:28:09;;;;;;;9.88;7.20;;;;;;;26.93;39.69;99407.72;5090196;28;20044;-62
2022/07/18 11:30:35;;;;;;;7.20;5.80;;;;;;;27.02;38.79;99404.44;5098467;28;20132;-67
2022/07/18 11:33:01;;;;;;;9.90;6.20;;;;;;;26.98;38.05;99395.25;5103535;28;20918;-67
2022/07/18 11:35:26;;;;;;;8.93;5.10;;;;;;;26.98;39.65;99404.47;5094821;28;20057;-67
2022/07/18 11:37:52;;;;;;;13.38;4.82;;;;;;;27.07;39.79;99392.75;5093448;28;20048;-57